Time;durP1;ratioP1;P1;durP2;ratioP2;P2;SDS_P1;SDS_P2;PMS_P1;PMS_P2;Temp;Humidity;BMP_temperature;BMP_pressure;BME280_temperature;BME280_humidity;BME280_pressure;Samples;Min_cycle;Max_cycle;Signal;HPM_P1;HPM_P2
2022/10/05 04:28:49;;;;;;;16.63;7.90;;;;;;;;;;5076052;23;20055;-60
2022/10/05 04:31:34;;;;;;;16.52;7.75;;;;;;;;;;4971960;28;20091;-58
2022/10/05 04:34:04;;;;;;;16.17;8.25;;;;;;;;;;4952927;29;20636;-66
2022/10/05 04:36:34;;;;;;;19.70;8.27;;;;;;;;;;4952845;29;20107;-57
2022/10/05 04:39:32;;;;;;;20.30;7.88;;;;;;;;;;4952415;29;20106;-57
2022/10/05 04:42:00;;;;;;;16.40;7.85;;;;;;;;;;4893282;29;20096;-57
2022/10/05 04:44:32;;;;;;;18.73;8.32;;;;;;;;;;4892793;29;20032;-56
2022/10/05 04:47:16;;;;;;;20.80;8.93;;;;;;;;;;4892762;29;20134;-57
2022/10/05 04:49:52;;;;;;;19.48;9.68;;;;;;;;;;4883683;29;20108;-56
2022/10/05 04:52:18;;;;;;;15.13;8.25;;;;;;;;;;4891458;29;20029;-57
2022/10/05 04:54:56;;;;;;;18.63;9.95;;;;;;;;;;4895171;29;20115;-56
2022/10/05 04:57:25;;;;;;;20.30;10.13;;;;;;;;;;4896053;29;20596;-57
2022/10/05 05:00:04;;;;;;;18.38;9.68;;;;;;;;;;4895530;29;20033;-57
2022/10/05 05:02:39;;;;;;;29.00;10.93;;;;;;;;;;4896941;29;20039;-56
2022/10/05 05:05:05;;;;;;;23.80;12.13;;;;;;;;;;4897051;29;20123;-56
2022/10/05 05:07:44;;;;;;;22.38;10.30;;;;;;;;;;4896834;29;20452;-56
2022/10/05 05:10:21;;;;;;;24.80;11.38;;;;;;;;;;4897094;29;20457;-57
2022/10/05 05:12:47;;;;;;;24.77;11.02;;;;;;;;;;4896705;29;20092;-57
2022/10/05 05:15:13;;;;;;;24.67;11.73;;;;;;;;;;4897017;29;20422;-57
2022/10/05 05:17:39;;;;;;;28.88;11.38;;;;;;;;;;4928488;29;20039;-58
2022/10/05 05:20:08;;;;;;;24.75;11.45;;;;;;;;;;4960832;28;20014;-57
2022/10/05 05:22:57;;;;;;;24.02;10.63;;;;;;;;;;4965394;28;20022;-57
2022/10/05 05:25:34;;;;;;;21.35;10.68;;;;;;;;;;4964591;28;20031;-57
2022/10/05 05:28:05;;;;;;;23.85;10.60;;;;;;;;;;4975543;28;20043;-57
2022/10/05 05:30:31;;;;;;;25.73;12.02;;;;;;;;;;4982663;28;20031;-57
2022/10/05 05:33:05;;;;;;;22.33;11.45;;;;;;;;;;4980463;28;20321;-66
2022/10/05 05:35:43;;;;;;;28.65;12.13;;;;;;;;;;4983058;28;20117;-57
2022/10/05 05:38:12;;;;;;;23.83;11.88;;;;;;;;;;4983282;28;20132;-59
2022/10/05 05:40:57;;;;;;;25.67;11.75;;;;;;;;;;4980328;28;20022;-57
2022/10/05 05:43:25;;;;;;;27.13;12.68;;;;;;;;;;4981318;28;20022;-57
2022/10/05 05:45:59;;;;;;;27.83;12.93;;;;;;;;;;4982575;28;20031;-57
2022/10/05 05:48:25;;;;;;;26.70;13.07;;;;;;;;;;4981412;28;20031;-61
2022/10/05 05:50:55;;;;;;;30.75;12.77;;;;;;;;;;4981564;28;20030;-60
2022/10/05 05:53:31;;;;;;;29.20;13.77;;;;;;;;;;4979223;28;20027;-58
2022/10/05 05:56:05;;;;;;;26.77;12.93;;;;;;;;;;4977797;28;20383;-57
2022/10/05 05:58:49;;;;;;;26.60;13.05;;;;;;;;;;4981285;28;20038;-57
2022/10/05 06:01:22;;;;;;;27.35;13.15;;;;;;;;;;4988616;28;20042;-57
2022/10/05 06:03:53;;;;;;;27.05;13.60;;;;;;;;;;4982379;28;20039;-57
2022/10/05 06:06:20;;;;;;;25.58;13.70;;;;;;;;;;4978145;28;20120;-57
2022/10/05 06:08:51;;;;;;;29.38;14.40;;;;;;;;;;4982130;28;20030;-57
2022/10/05 06:11:21;;;;;;;29.20;14.90;;;;;;;;;;4977725;28;20026;-57
2022/10/05 06:13:48;;;;;;;28.13;15.70;;;;;;;;;;4981917;28;20023;-57
2022/10/05 06:16:17;;;;;;;26.10;15.02;;;;;;;;;;4980746;28;20027;-57
2022/10/05 06:18:47;;;;;;;27.10;14.05;;;;;;;;;;4981741;28;20026;-57
2022/10/05 06:21:35;;;;;;;24.55;13.57;;;;;;;;;;4982930;28;20505;-57
2022/10/05 06:24:25;;;;;;;23.92;12.70;;;;;;;;;;4984050;28;20086;-57
2022/10/05 06:27:02;;;;;;;24.33;13.85;;;;;;;;;;4908023;29;20117;-57
2022/10/05 06:29:40;;;;;;;27.40;13.82;;;;;;;;;;4911532;29;20115;-57
2022/10/05 06:32:17;;;;;;;27.77;13.82;;;;;;;;;;4912975;29;20499;-57
2022/10/05 06:34:53;;;;;;;22.70;12.35;;;;;;;;;;4899525;29;20035;-57
2022/10/05 06:37:36;;;;;;;25.15;13.30;;;;;;;;;;4898422;29;20052;-57
2022/10/05 06:40:02;;;;;;;29.73;13.32;;;;;;;;;;4898717;29;20164;-57
2022/10/05 06:42:28;;;;;;;20.92;12.93;;;;;;;;;;4902632;29;20387;-57
2022/10/05 06:45:13;;;;;;;26.00;12.82;;;;;;;;;;4912360;29;20119;-56
2022/10/05 06:47:47;;;;;;;29.90;13.70;;;;;;;;;;4912701;29;20028;-56
2022/10/05 06:50:36;;;;;;;25.27;14.18;;;;;;;;;;4910589;29;20048;-56
2022/10/05 06:53:20;;;;;;;30.02;13.73;;;;;;;;;;4893417;29;20080;-56
2022/10/05 06:56:04;;;;;;;26.27;13.80;;;;;;;;;;4895828;29;20051;-56
2022/10/05 06:58:30;;;;;;;27.10;14.45;;;;;;;;;;4898118;29;20052;-56
2022/10/05 07:01:03;;;;;;;24.90;13.25;;;;;;;;;;4904840;29;20551;-58
2022/10/05 07:03:35;;;;;;;24.00;13.23;;;;;;;;;;4922141;28;20031;-56
2022/10/05 07:06:13;;;;;;;27.95;13.85;;;;;;;;;;4959957;28;20035;-56
2022/10/05 07:08:39;;;;;;;28.25;15.02;;;;;;;;;;4959664;28;20391;-58
2022/10/05 07:11:08;;;;;;;26.85;13.93;;;;;;;;;;4961489;28;20050;-57
2022/10/05 07:13:40;;;;;;;27.10;14.02;;;;;;;;;;4958361;28;20023;-55
2022/10/05 07:16:15;;;;;;;23.25;14.52;;;;;;;;;;4941398;28;20062;-55
2022/10/05 07:19:01;;;;;;;23.73;13.98;;;;;;;;;;4942678;28;20056;-56
2022/10/05 07:21:27;;;;;;;25.63;13.55;;;;;;;;;;4943047;28;20023;-56
2022/10/05 07:23:53;;;;;;;35.65;19.20;;;;;;;;;;4971236;28;20090;-58
2022/10/05 07:26:38;;;;;;;24.70;14.43;;;;;;;;;;4958734;28;20090;-57
2022/10/05 07:29:06;;;;;;;22.25;11.98;;;;;;;;;;4954051;28;20043;-56
2022/10/05 07:31:35;;;;;;;23.05;12.88;;;;;;;;;;4960526;28;20035;-56
2022/10/05 07:34:20;;;;;;;19.10;10.57;;;;;;;;;;4952568;29;20027;-56
2022/10/05 07:39:38;;;;;;;21.02;11.85;;;;;;;;;;4961286;28;20057;-57
2022/10/05 07:42:17;;;;;;;22.10;12.07;;;;;;;;;;4959868;28;20442;-56
2022/10/05 07:44:51;;;;;;;24.13;12.35;;;;;;;;;;4957240;28;20027;-56
2022/10/05 07:47:34;;;;;;;25.45;12.40;;;;;;;;;;4958507;28;20388;-56
2022/10/05 07:50:04;;;;;;;22.30;13.13;;;;;;;;;;4963116;28;20163;-56
2022/10/05 07:52:30;;;;;;;22.92;12.00;;;;;;;;;;4960879;28;20023;-56
2022/10/05 07:54:56;;;;;;;23.55;12.18;;;;;;;;;;4959895;28;20476;-57
2022/10/05 07:57:40;;;;;;;20.70;12.25;;;;;;;;;;4956333;28;20046;-55
2022/10/05 08:00:17;;;;;;;20.15;12.13;;;;;;;;;;4957848;28;20535;-56
2022/10/05 08:02:55;;;;;;;28.20;14.10;;;;;;;;;;4962414;28;20191;-56
2022/10/05 08:05:25;;;;;;;17.70;10.52;;;;;;;;;;4955543;28;20094;-56
2022/10/05 08:07:55;;;;;;;21.83;11.25;;;;;;;;;;4952476;29;20114;-56
2022/10/05 08:10:36;;;;;;;18.23;10.63;;;;;;;;;;4952458;29;20106;-56
2022/10/05 08:13:02;;;;;;;21.10;11.60;;;;;;;;;;4951416;29;20023;-56
2022/10/05 08:15:49;;;;;;;18.48;10.48;;;;;;;;;;4952087;29;20387;-56
2022/10/05 08:18:24;;;;;;;20.80;11.15;;;;;;;;;;4952090;29;20082;-56
2022/10/05 08:20:53;;;;;;;17.98;10.82;;;;;;;;;;4952666;29;20035;-55
2022/10/05 08:23:22;;;;;;;21.40;11.30;;;;;;;;;;4952131;29;20079;-56
2022/10/05 08:25:51;;;;;;;18.77;10.27;;;;;;;;;;4945256;29;20067;-56
2022/10/05 08:28:24;;;;;;;17.25;8.55;;;;;;;;;;4959049;28;20097;-58
2022/10/05 08:30:53;;;;;;;20.08;8.95;;;;;;;;;;4974974;28;20054;-55
2022/10/05 08:33:21;;;;;;;16.77;8.68;;;;;;;;;;4974992;28;20537;-55
2022/10/05 08:36:02;;;;;;;19.90;9.60;;;;;;;;;;4974788;28;20501;-63
2022/10/05 08:38:31;;;;;;;12.05;7.32;;;;;;;;;;4975057;28;20046;-56
2022/10/05 08:41:00;;;;;;;14.18;7.90;;;;;;;;;;4975188;28;20031;-55
2022/10/05 08:43:38;;;;;;;12.50;7.07;;;;;;;;;;4974866;28;20529;-60
2022/10/05 08:46:07;;;;;;;13.82;6.55;;;;;;;;;;4974837;28;20409;-55
2022/10/05 08:48:34;;;;;;;16.38;8.07;;;;;;;;;;4974625;28;20415;-55
2022/10/05 08:51:19;;;;;;;15.68;8.13;;;;;;;;;;4974623;28;20041;-56
2022/10/05 08:54:23;;;;;;;15.60;7.88;;;;;;;;;;4974588;28;20487;-55
2022/10/05 08:57:08;;;;;;;16.77;7.88;;;;;;;;;;4877201;29;20045;-56
2022/10/05 08:59:46;;;;;;;13.02;7.13;;;;;;;;;;4876643;29;20074;-55
2022/10/05 09:02:24;;;;;;;16.05;8.10;;;;;;;;;;4877381;29;20056;-55
2022/10/05 09:04:52;;;;;;;12.40;7.78;;;;;;;;;;4877385;29;20543;-62
2022/10/05 09:07:37;;;;;;;13.13;7.82;;;;;;;;;;4877082;29;20555;-53
2022/10/05 09:10:09;;;;;;;15.20;7.05;;;;;;;;;;4876886;29;20033;-59
2022/10/05 09:12:40;;;;;;;13.75;6.97;;;;;;;;;;4876747;29;20100;-57
2022/10/05 09:15:06;;;;;;;15.65;9.02;;;;;;;;;;4876339;29;20049;-56
2022/10/05 09:17:33;;;;;;;14.73;8.98;;;;;;;;;;4876356;29;20497;-61
2022/10/05 09:20:02;;;;;;;16.58;9.18;;;;;;;;;;4876934;29;20054;-62
2022/10/05 09:22:37;;;;;;;21.90;9.68;;;;;;;;;;4876917;29;20029;-57
2022/10/05 09:25:24;;;;;;;19.58;10.60;;;;;;;;;;4876681;29;20400;-56
2022/10/05 09:27:58;;;;;;;21.30;11.77;;;;;;;;;;4934247;28;20744;-56
2022/10/05 09:30:41;;;;;;;23.33;12.68;;;;;;;;;;4980571;28;20034;-56
2022/10/05 09:33:25;;;;;;;24.73;13.30;;;;;;;;;;4993696;28;20041;-56
2022/10/05 09:35:58;;;;;;;26.77;12.07;;;;;;;;;;4971954;28;20039;-55
2022/10/05 09:38:24;;;;;;;;;;;;;;;;;;4954767;29;20027;-56
2022/10/05 09:40:52;;;;;;;16.65;11.15;;;;;;;;;;4953978;28;19906;-57
2022/10/05 09:43:24;;;;;;;19.00;12.10;;;;;;;;;;4954361;29;20028;-57
2022/10/05 09:46:20;;;;;;;25.02;13.48;;;;;;;;;;4954609;29;20105;-57
2022/10/05 09:49:04;;;;;;;20.75;11.60;;;;;;;;;;4875993;29;20045;-56
2022/10/05 09:51:32;;;;;;;26.25;12.82;;;;;;;;;;4876794;29;20545;-57
2022/10/05 09:54:04;;;;;;;27.60;14.45;;;;;;;;;;4876849;29;20100;-57
2022/10/05 09:56:33;;;;;;;15.00;9.55;;;;;;;;;;4876523;29;20059;-57
2022/10/05 09:59:07;;;;;;;27.48;13.98;;;;;;;;;;4876568;29;20052;-57
2022/10/05 10:01:33;;;;;;;23.15;14.27;;;;;;;;;;4876479;29;20496;-57
2022/10/05 10:04:06;;;;;;;24.17;13.25;;;;;;;;;;4876647;29;20033;-57
2022/10/05 10:06:38;;;;;;;21.30;13.48;;;;;;;;;;4876384;29;20045;-56
2022/10/05 10:09:25;;;;;;;24.45;14.40;;;;;;;;;;4876640;29;20040;-57
2022/10/05 10:12:10;;;;;;;28.08;14.70;;;;;;;;;;4876258;29;20101;-61
2022/10/05 10:14:47;;;;;;;25.55;14.30;;;;;;;;;;4875932;29;20609;-57
2022/10/05 10:17:30;;;;;;;27.08;14.13;;;;;;;;;;4876223;29;20044;-56
2022/10/05 10:19:56;;;;;;;26.55;13.70;;;;;;;;;;4876398;29;20037;-57
2022/10/05 10:22:25;;;;;;;24.58;13.27;;;;;;;;;;4876164;29;20394;-56
2022/10/05 10:25:02;;;;;;;29.70;13.77;;;;;;;;;;4902358;29;20047;-57
2022/10/05 10:27:47;;;;;;;25.98;13.77;;;;;;;;;;4953564;29;20139;-64
2022/10/05 10:30:19;;;;;;;26.85;13.73;;;;;;;;;;4953829;29;20070;-57
2022/10/05 10:33:04;;;;;;;17.50;10.80;;;;;;;;;;4953933;29;20023;-58
2022/10/05 10:35:38;;;;;;;19.75;9.80;;;;;;;;;;4953834;29;20395;-57
2022/10/05 10:38:04;;;;;;;19.05;9.18;;;;;;;;;;4953860;29;20031;-57
2022/10/05 10:40:37;;;;;;;13.93;8.43;;;;;;;;;;4953699;29;20037;-56
2022/10/05 10:43:03;;;;;;;;;;;;;;;;;;4953942;29;20055;-66
2022/10/05 10:45:31;;;;;;;16.83;8.20;;;;;;;;;;4953452;29;20349;-56
2022/10/05 10:48:10;;;;;;;19.67;8.18;;;;;;;;;;4953616;29;20483;-55
2022/10/05 10:50:42;;;;;;;16.80;8.45;;;;;;;;;;4953012;28;20038;-57
2022/10/05 10:53:09;;;;;;;;;;;;;;;;;;4953189;29;20045;-57
2022/10/05 10:55:55;;;;;;;14.23;8.23;;;;;;;;;;4953216;29;19914;-57
2022/10/05 10:58:41;;;;;;;13.43;7.53;;;;;;;;;;4952839;29;20090;-67
2022/10/05 11:01:16;;;;;;;14.63;7.72;;;;;;;;;;4952990;29;20510;-55
2022/10/05 11:04:00;;;;;;;17.75;8.38;;;;;;;;;;4953061;29;20043;-57
2022/10/05 11:06:26;;;;;;;17.33;8.60;;;;;;;;;;4952971;29;20028;-57
2022/10/05 11:08:52;;;;;;;17.80;8.82;;;;;;;;;;4935545;29;20038;-65
2022/10/05 11:11:37;;;;;;;15.75;8.10;;;;;;;;;;4953210;29;20023;-56
2022/10/05 11:14:03;;;;;;;13.50;7.97;;;;;;;;;;4952549;29;20031;-57
2022/10/05 11:16:29;;;;;;;17.08;8.57;;;;;;;;;;4952254;29;20483;-57
2022/10/05 11:18:58;;;;;;;15.15;7.47;;;;;;;;;;4952512;29;20023;-56
2022/10/05 11:21:32;;;;;;;13.38;7.50;;;;;;;;;;4952606;29;20027;-57
2022/10/05 11:24:17;;;;;;;17.23;8.48;;;;;;;;;;4952519;29;20031;-56
2022/10/05 11:27:02;;;;;;;19.88;10.15;;;;;;;;;;4952197;29;20480;-57
2022/10/05 11:29:34;;;;;;;15.23;8.25;;;;;;;;;;4952177;29;20113;-67
2022/10/05 11:32:11;;;;;;;18.73;9.77;;;;;;;;;;4952453;29;20106;-55
2022/10/05 11:34:51;;;;;;;15.75;8.15;;;;;;;;;;4952470;29;20039;-56
2022/10/05 11:37:33;;;;;;;15.63;7.47;;;;;;;;;;4952226;29;20446;-56
2022/10/05 11:39:59;;;;;;;17.17;8.48;;;;;;;;;;4952463;29;20019;-56
2022/10/05 11:42:44;;;;;;;18.92;10.20;;;;;;;;;;4952578;29;20053;-61
2022/10/05 11:45:10;;;;;;;40.38;22.48;;;;;;;;;;4952499;29;20479;-56
2022/10/05 11:47:36;;;;;;;19.45;9.55;;;;;;;;;;4952276;29;20055;-55
2022/10/05 11:50:21;;;;;;;17.63;9.70;;;;;;;;;;4952153;29;20031;-56
2022/10/05 11:52:50;;;;;;;16.98;9.40;;;;;;;;;;4934470;29;20522;-66
2022/10/05 11:55:31;;;;;;;20.23;9.40;;;;;;;;;;4952630;29;20527;-67
2022/10/05 11:57:57;;;;;;;11.98;6.72;;;;;;;;;;4952102;29;20035;-62
2022/10/05 12:00:43;;;;;;;18.60;9.38;;;;;;;;;;4951946;29;20027;-56
2022/10/05 12:03:16;;;;;;;17.77;7.78;;;;;;;;;;4953507;28;20042;-59
2022/10/05 12:05:45;;;;;;;15.65;7.55;;;;;;;;;;4938982;29;20419;-56
2022/10/05 12:08:14;;;;;;;14.05;8.68;;;;;;;;;;4955859;29;20055;-57
2022/10/05 12:10:59;;;;;;;16.80;9.02;;;;;;;;;;4956018;29;20037;-57
2022/10/05 12:13:36;;;;;;;18.55;9.00;;;;;;;;;;4956265;29;20028;-56
2022/10/05 12:16:16;;;;;;;18.77;9.20;;;;;;;;;;4955695;29;20047;-62
2022/10/05 12:19:09;;;;;;;18.52;9.63;;;;;;;;;;4956149;29;20027;-55
2022/10/05 12:21:41;;;;;;;15.35;8.63;;;;;;;;;;4896624;29;20032;-56
2022/10/05 12:24:13;;;;;;;17.17;8.80;;;;;;;;;;4896446;29;20035;-58
2022/10/05 12:26:40;;;;;;;17.02;9.60;;;;;;;;;;4895533;29;20044;-62
2022/10/05 12:29:12;;;;;;;14.65;8.93;;;;;;;;;;4896378;29;20035;-61
2022/10/05 12:31:38;;;;;;;15.70;8.02;;;;;;;;;;4896975;29;20032;-56
2022/10/05 12:34:13;;;;;;;18.77;9.02;;;;;;;;;;4896805;29;20035;-56
2022/10/05 12:36:42;;;;;;;18.35;8.55;;;;;;;;;;4896975;29;20077;-64
2022/10/05 12:39:11;;;;;;;14.90;8.75;;;;;;;;;;4896455;29;20096;-64
2022/10/05 12:41:37;;;;;;;14.13;8.00;;;;;;;;;;4896447;29;20188;-60
2022/10/05 12:44:03;;;;;;;16.35;8.15;;;;;;;;;;4896031;29;20150;-56
2022/10/05 12:46:41;;;;;;;13.82;7.95;;;;;;;;;;4896273;29;20057;-56
2022/10/05 12:49:25;;;;;;;14.00;8.23;;;;;;;;;;4896157;29;20028;-57
2022/10/05 12:51:56;;;;;;;14.23;7.80;;;;;;;;;;4896419;29;20041;-56
2022/10/05 12:54:22;;;;;;;13.88;7.47;;;;;;;;;;4896051;29;20037;-57
2022/10/05 12:56:55;;;;;;;13.73;6.63;;;;;;;;;;4895716;29;20041;-68
2022/10/05 12:59:27;;;;;;;12.88;6.85;;;;;;;;;;4948960;29;20050;-64
2022/10/05 13:01:53;;;;;;;;;;;;;;;;;;4955376;29;20031;-62
2022/10/05 13:04:25;;;;;;;11.68;5.97;;;;;;;;;;4955244;29;20010;-56
2022/10/05 13:06:55;;;;;;;10.70;6.07;;;;;;;;;;4955158;29;20036;-57
2022/10/05 13:09:28;;;;;;;10.60;6.20;;;;;;;;;;4955438;29;20475;-57
2022/10/05 13:11:57;;;;;;;13.35;6.82;;;;;;;;;;4955309;29;20043;-58
2022/10/05 13:14:35;;;;;;;13.18;7.10;;;;;;;;;;4953028;28;20498;-56
2022/10/05 13:17:24;;;;;;;13.75;7.07;;;;;;;;;;4955191;29;20039;-56
2022/10/05 13:19:54;;;;;;;12.88;6.57;;;;;;;;;;4877111;29;20033;-57
2022/10/05 13:22:34;;;;;;;9.75;6.00;;;;;;;;;;4876580;29;20148;-57
2022/10/05 13:25:00;;;;;;;11.27;6.85;;;;;;;;;;4876780;29;20041;-58
2022/10/05 13:27:28;;;;;;;12.43;6.13;;;;;;;;;;4869857;29;20069;-56
2022/10/05 13:30:07;;;;;;;12.90;6.63;;;;;;;;;;4858302;29;20132;-68
2022/10/05 13:32:39;;;;;;;12.88;6.72;;;;;;;;;;4858446;29;20033;-57
2022/10/05 13:35:21;;;;;;;10.90;6.00;;;;;;;;;;4858056;29;20128;-56
2022/10/05 13:38:05;;;;;;;6.53;4.25;;;;;;;;;;4858211;29;20062;-65
2022/10/05 13:40:43;;;;;;;12.60;5.55;;;;;;;;;;4858758;29;20029;-57
2022/10/05 13:43:18;;;;;;;15.65;6.38;;;;;;;;;;4858362;29;20165;-57
2022/10/05 13:45:49;;;;;;;13.57;5.85;;;;;;;;;;4858170;29;20044;-56
2022/10/05 13:48:19;;;;;;;13.02;6.18;;;;;;;;;;4857503;29;20041;-57
2022/10/05 13:50:54;;;;;;;13.07;5.70;;;;;;;;;;4858259;29;20497;-56
2022/10/05 13:53:43;;;;;;;11.25;5.93;;;;;;;;;;4857976;29;20040;-62
2022/10/05 13:56:12;;;;;;;9.43;5.68;;;;;;;;;;4867597;29;20051;-55
2022/10/05 13:58:46;;;;;;;11.00;5.18;;;;;;;;;;4934974;29;20573;-56
2022/10/05 14:01:16;;;;;;;12.57;5.10;;;;;;;;;;4935363;29;20086;-58
2022/10/05 14:04:02;;;;;;;8.77;4.45;;;;;;;;;;4934734;29;20032;-58
2022/10/05 14:06:29;;;;;;;10.27;4.47;;;;;;;;;;4935346;29;20028;-60
2022/10/05 14:09:01;;;;;;;9.85;5.13;;;;;;;;;;4935338;29;20020;-69
2022/10/05 14:11:32;;;;;;;10.98;5.15;;;;;;;;;;4934888;29;20455;-66
2022/10/05 14:14:14;;;;;;;11.63;5.03;;;;;;;;;;4934664;29;20024;-64
2022/10/05 14:16:47;;;;;;;9.68;4.80;;;;;;;;;;4934786;29;20068;-55
2022/10/05 14:19:34;;;;;;;9.13;4.80;;;;;;;;;;4934846;29;20063;-56
2022/10/05 14:22:01;;;;;;;9.32;5.40;;;;;;;;;;4934619;29;20036;-57
2022/10/05 14:24:31;;;;;;;14.20;4.72;;;;;;;;;;4934629;29;20031;-70
2022/10/05 14:26:57;;;;;;;10.90;5.18;;;;;;;;;;4936940;29;20050;-62
2022/10/05 14:29:25;;;;;;;11.52;5.28;;;;;;;;;;4953240;29;20031;-56
2022/10/05 14:31:58;;;;;;;14.65;5.35;;;;;;;;;;4953912;29;20030;-62
2022/10/05 14:34:45;;;;;;;12.13;5.50;;;;;;;;;;4953708;29;20420;-56
2022/10/05 14:37:17;;;;;;;12.52;5.70;;;;;;;;;;4952398;29;20109;-56
2022/10/05 14:39:43;;;;;;;10.63;5.05;;;;;;;;;;4953598;29;20506;-56
2022/10/05 14:42:17;;;;;;;8.85;5.20;;;;;;;;;;4953472;29;20047;-56
2022/10/05 14:44:44;;;;;;;8.95;5.18;;;;;;;;;;4953649;29;20097;-69
2022/10/05 14:47:17;;;;;;;9.82;5.18;;;;;;;;;;4953136;29;20027;-59
2022/10/05 14:50:09;;;;;;;9.93;5.18;;;;;;;;;;4935930;29;20035;-55
2022/10/05 14:52:36;;;;;;;9.37;5.50;;;;;;;;;;4953710;29;20035;-56
2022/10/05 14:55:09;;;;;;;9.20;5.20;;;;;;;;;;4953411;29;20518;-56
2022/10/05 14:57:38;;;;;;;9.73;5.13;;;;;;;;;;4973518;28;20448;-56
2022/10/05 15:00:04;;;;;;;11.38;5.28;;;;;;;;;;4992093;28;20038;-56
2022/10/05 15:02:36;;;;;;;10.52;5.85;;;;;;;;;;4991950;28;20101;-70
2022/10/05 15:05:14;;;;;;;11.55;5.18;;;;;;;;;;4991807;28;20034;-59
2022/10/05 15:07:42;;;;;;;8.43;4.65;;;;;;;;;;4991682;28;20066;-68
2022/10/05 15:10:28;;;;;;;7.13;4.68;;;;;;;;;;4991822;28;20379;-61
2022/10/05 15:12:57;;;;;;;12.63;4.68;;;;;;;;;;4992198;28;20034;-68
2022/10/05 15:15:27;;;;;;;11.73;4.28;;;;;;;;;;4991763;28;20134;-68
2022/10/05 15:17:59;;;;;;;8.35;4.40;;;;;;;;;;4991571;28;20109;-55
2022/10/05 15:20:28;;;;;;;9.25;5.15;;;;;;;;;;4991635;28;20390;-57
2022/10/05 15:23:14;;;;;;;9.95;5.07;;;;;;;;;;4991249;28;20018;-56
2022/10/05 15:25:50;;;;;;;9.30;4.40;;;;;;;;;;4974825;28;20045;-55
2022/10/05 15:28:29;;;;;;;10.57;4.93;;;;;;;;;;4990686;28;20046;-56
2022/10/05 15:31:02;;;;;;;7.93;4.90;;;;;;;;;;4991585;28;20046;-55
2022/10/05 15:33:34;;;;;;;10.75;5.55;;;;;;;;;;4991675;28;20042;-56
2022/10/05 15:36:05;;;;;;;11.35;6.30;;;;;;;;;;4991888;28;20042;-56
2022/10/05 15:38:41;;;;;;;14.07;7.05;;;;;;;;;;4990532;28;20364;-58
2022/10/05 15:41:24;;;;;;;11.98;6.18;;;;;;;;;;4991340;28;20398;-56
2022/10/05 15:43:50;;;;;;;;;;;;;;;;;;4991496;28;20026;-56
2022/10/05 15:46:27;;;;;;;12.85;6.03;;;;;;;;;;4991249;28;19912;-55
2022/10/05 15:48:53;;;;;;;11.32;5.72;;;;;;;;;;4991365;28;20030;-56
2022/10/05 15:51:34;;;;;;;13.27;7.03;;;;;;;;;;4990672;28;20037;-58
2022/10/05 15:55:05;;;;;;;16.92;7.95;;;;;;;;;;4991234;28;20038;-56
2022/10/05 15:57:20;;;;;;;15.57;7.65;;;;;;;;;;4974215;28;20050;-56
2022/10/05 16:00:12;;;;;;;15.63;8.63;;;;;;;;;;4991194;28;20441;-56
2022/10/05 16:02:51;;;;;;;14.88;7.93;;;;;;;;;;4986276;28;20038;-56
2022/10/05 16:08:49;;;;;;;19.65;10.35;;;;;;;;;;4990931;28;20394;-56
2022/10/05 16:11:07;;;;;;;25.65;11.18;;;;;;;;;;4990963;28;20108;-56
2022/10/05 16:13:45;;;;;;;22.30;12.05;;;;;;;;;;4990775;28;20041;-56
2022/10/05 16:16:19;;;;;;;23.00;13.75;;;;;;;;;;4991129;28;20050;-72
2022/10/05 16:18:45;;;;;;;35.13;18.27;;;;;;;;;;4990927;28;20029;-56
2022/10/05 16:21:40;;;;;;;30.67;17.33;;;;;;;;;;4991183;28;20030;-56
2022/10/05 16:24:29;;;;;;;33.47;17.27;;;;;;;;;;4990835;28;20117;-55
2022/10/05 16:26:59;;;;;;;29.27;15.93;;;;;;;;;;4975530;28;20046;-56
2022/10/05 16:29:38;;;;;;;29.05;15.85;;;;;;;;;;4977243;28;20038;-61
2022/10/05 16:32:14;;;;;;;31.60;16.20;;;;;;;;;;4971238;28;20506;-66
2022/10/05 16:34:40;;;;;;;30.58;17.73;;;;;;;;;;4970704;28;20483;-67
2022/10/05 16:37:08;;;;;;;30.95;18.13;;;;;;;;;;4971089;28;20105;-64
2022/10/05 16:39:37;;;;;;;31.95;17.23;;;;;;;;;;4970795;28;20030;-62
2022/10/05 16:42:13;;;;;;;30.13;16.63;;;;;;;;;;4970642;28;20058;-62
2022/10/05 16:44:51;;;;;;;25.08;15.25;;;;;;;;;;4970319;28;20542;-57
2022/10/05 16:47:20;;;;;;;26.10;15.32;;;;;;;;;;4970767;28;20035;-54
2022/10/05 16:49:46;;;;;;;30.15;15.77;;;;;;;;;;4972405;28;20027;-57
2022/10/05 16:52:18;;;;;;;32.72;17.10;;;;;;;;;;4974194;28;20058;-57
2022/10/05 16:54:50;;;;;;;22.35;12.38;;;;;;;;;;4973304;28;20046;-57
2022/10/05 16:57:17;;;;;;;36.40;17.38;;;;;;;;;;4973639;28;20043;-55
2022/10/05 16:59:48;;;;;;;29.95;17.70;;;;;;;;;;4965467;28;20037;-61
2022/10/05 17:02:14;;;;;;;38.50;19.23;;;;;;;;;;4974018;28;20035;-58
2022/10/05 17:04:40;;;;;;;41.58;20.15;;;;;;;;;;4974073;28;20029;-55
2022/10/05 17:07:09;;;;;;;39.72;19.60;;;;;;;;;;4974760;28;20034;-56
2022/10/05 17:09:46;;;;;;;38.15;18.00;;;;;;;;;;4974943;28;20026;-69
2022/10/05 17:12:12;;;;;;;30.23;16.33;;;;;;;;;;4974705;28;20023;-57
2022/10/05 17:14:53;;;;;;;31.35;17.33;;;;;;;;;;4981811;28;20030;-59
2022/10/05 17:17:31;;;;;;;32.35;17.23;;;;;;;;;;4979098;28;20522;-59
2022/10/05 17:20:16;;;;;;;45.15;23.33;;;;;;;;;;4971610;28;20105;-57
2022/10/05 17:22:52;;;;;;;43.25;21.17;;;;;;;;;;4977911;28;20034;-60
2022/10/05 17:25:47;;;;;;;38.40;18.35;;;;;;;;;;4974999;28;20023;-56
2022/10/05 17:28:22;;;;;;;36.30;17.90;;;;;;;;;;4895946;29;20045;-55
2022/10/05 17:31:02;;;;;;;36.60;18.10;;;;;;;;;;4895823;29;20037;-55
2022/10/05 17:33:32;;;;;;;30.73;17.35;;;;;;;;;;4896001;29;20033;-56
2022/10/05 17:36:07;;;;;;;35.28;17.50;;;;;;;;;;4895704;29;20432;-57
2022/10/05 17:38:33;;;;;;;34.13;17.45;;;;;;;;;;4895949;29;20044;-57
2022/10/05 17:41:17;;;;;;;32.63;16.05;;;;;;;;;;4895800;29;20088;-57
2022/10/05 17:44:02;;;;;;;28.58;15.20;;;;;;;;;;4896052;29;20029;-56
2022/10/05 17:46:38;;;;;;;28.02;16.52;;;;;;;;;;4895641;29;20044;-57
2022/10/05 17:49:19;;;;;;;33.40;15.70;;;;;;;;;;4895866;29;20025;-57
2022/10/05 17:57:18;;;;;;;31.17;17.92;;;;;;;;;;4895798;29;20472;-58
2022/10/05 17:59:54;;;;;;;33.95;18.55;;;;;;;;;;4895415;29;20060;-57
2022/10/05 18:02:26;;;;;;;36.80;19.33;;;;;;;;;;4894564;29;20036;-57
2022/10/05 18:05:16;;;;;;;32.92;17.02;;;;;;;;;;4942361;28;20130;-56
2022/10/05 18:07:50;;;;;;;31.17;17.05;;;;;;;;;;4973638;28;20031;-56
2022/10/05 18:10:42;;;;;;;34.75;16.83;;;;;;;;;;4973513;28;20106;-61
2022/10/05 18:13:33;;;;;;;28.33;14.95;;;;;;;;;;4944120;28;20041;-60
2022/10/05 18:15:59;;;;;;;27.92;14.80;;;;;;;;;;4973691;28;20070;-57
2022/10/05 18:18:35;;;;;;;34.10;15.60;;;;;;;;;;4973504;28;20110;-57
2022/10/05 18:21:13;;;;;;;31.95;15.90;;;;;;;;;;4973144;28;20042;-68
2022/10/05 18:23:48;;;;;;;29.27;15.52;;;;;;;;;;4973106;28;20475;-63
2022/10/05 18:26:31;;;;;;;24.13;14.52;;;;;;;;;;4973165;28;20402;-55
2022/10/05 18:30:01;;;;;;;35.05;13.27;;;;;;;;;;4972883;28;20518;-62
2022/10/05 18:32:06;;;;;;;23.77;12.30;;;;;;;;;;4967692;28;20026;-55
2022/10/05 18:34:32;;;;;;;24.60;12.65;;;;;;;;;;4973201;28;20666;-55
2022/10/05 18:37:14;;;;;;;22.65;12.05;;;;;;;;;;4972902;28;20530;-56
2022/10/05 18:39:49;;;;;;;25.17;13.77;;;;;;;;;;4973269;28;20022;-62
2022/10/05 18:42:21;;;;;;;24.33;13.27;;;;;;;;;;4973049;28;20379;-56
2022/10/05 18:45:02;;;;;;;23.70;12.75;;;;;;;;;;4975732;28;20175;-56
2022/10/05 18:47:47;;;;;;;24.17;13.20;;;;;;;;;;4980512;28;20406;-57
2022/10/05 18:50:39;;;;;;;27.30;13.48;;;;;;;;;;4992169;28;20026;-56
2022/10/05 18:53:05;;;;;;;23.85;13.13;;;;;;;;;;4954899;28;20127;-71
2022/10/05 18:55:32;;;;;;;26.88;13.90;;;;;;;;;;4988343;28;20038;-56
2022/10/05 18:58:00;;;;;;;23.30;12.65;;;;;;;;;;4972715;28;20027;-57
2022/10/05 19:00:32;;;;;;;20.90;10.90;;;;;;;;;;4972533;28;20489;-70
2022/10/05 19:03:01;;;;;;;14.25;8.13;;;;;;;;;;4972455;28;20048;-56
2022/10/05 19:05:29;;;;;;;20.52;10.82;;;;;;;;;;4983945;28;20422;-72
2022/10/05 19:07:59;;;;;;;17.08;9.20;;;;;;;;;;4977292;28;20042;-72
2022/10/05 19:10:28;;;;;;;17.00;9.85;;;;;;;;;;4983113;28;20049;-64
2022/10/05 19:12:57;;;;;;;20.67;9.98;;;;;;;;;;4971761;28;20031;-56
2022/10/05 19:15:28;;;;;;;15.05;8.55;;;;;;;;;;4972230;28;20031;-65
2022/10/05 19:18:21;;;;;;;16.27;9.05;;;;;;;;;;4972513;28;20061;-71
2022/10/05 19:20:53;;;;;;;15.10;8.48;;;;;;;;;;4972691;28;20414;-67
2022/10/05 19:23:38;;;;;;;17.88;9.02;;;;;;;;;;4972737;28;20491;-59
2022/10/05 19:26:16;;;;;;;16.63;8.77;;;;;;;;;;4973000;28;20035;-59
2022/10/05 19:28:42;;;;;;;17.20;8.02;;;;;;;;;;4972421;28;20139;-56
2022/10/05 19:31:08;;;;;;;14.02;8.52;;;;;;;;;;4972650;28;20071;-73
2022/10/05 19:33:53;;;;;;;15.27;8.93;;;;;;;;;;4972936;28;20375;-77
2022/10/05 19:36:38;;;;;;;18.00;10.02;;;;;;;;;;4972673;28;20502;-73
2022/10/05 19:39:26;;;;;;;17.95;10.80;;;;;;;;;;4972732;28;20023;-64
2022/10/05 19:42:03;;;;;;;18.65;9.88;;;;;;;;;;4972645;28;20039;-65
2022/10/05 19:44:29;;;;;;;18.23;9.68;;;;;;;;;;4972458;28;20301;-63
2022/10/05 19:46:55;;;;;;;17.90;9.98;;;;;;;;;;4972360;28;20116;-62
2022/10/05 19:49:41;;;;;;;19.23;9.27;;;;;;;;;;4972488;28;20030;-60